Terminal Aerodrome Forecast
Issued by NWS Mt. Holly, NJ

Home | Current Version | Previous Version | Text Only | Print | Product List | Glossary On
Versions: 1 2 3 4 5 6 7 8 9 10 11 12 13 14 15 16 17 18 19 20 21 22
416
FTUS41 KPHI 230653 AAA
TAFACY
TAF AMD
KACY 230653Z 2307/2406 35006KT P6SM BKN250
     FM231200 03009KT P6SM BKN250
     FM231600 08009KT P6SM BKN250
     FM232100 12006KT P6SM BKN250
     FM240400 VRB03KT P6SM OVC050=

USA.gov is the U.S. government's official web portal to all federal, state and local government web resources and services.